Historyczne dane pomiarowe

Dodano dane terminowe – wersja testowa.

Dane z okresu 1951-2019

Wersja bazy: 1.34 [2019-03-16, lista zmian], aktualizacja planowana na 2019-04-15

Dane meteo z obszaru Polski uzyskane na podstawie danych udostępnionych przez Instytut Meteorologii i Gospodarki Wodnej – Państwowy Instytut Badawczy.

 

Wybierz Datę:    

       

TemperaturaWilgotnośćWiatrCiśnienieOpadyŚniegCzas trwania zjawisk
 Stacja t tx tn tng RH VA  wxwx mslp ppp RRR   cm mm wxwxwxwxwxwxwx
1983-08-14 13.0 18.1 9.8--- 3.7 6.7---- 0.0------------
1983-08-13 14.4 20.5 11.3--- 7.3 5.0---- 5.8------------
1983-08-12 18.5 23.4 15.4--- 4.3 2.7---- 0.0------------
1983-08-11 18.0 20.9 14.8--- 8.0 4.7---- 2.6------------
1983-08-10 18.3 24.2 13.2--- 5.7 4.7---- 18.3------------
1983-08-09 18.7 26.1 12.0--- 2.3 3.0---- 3.2------------
1983-08-08 18.8 25.8 13.3--- 2.7 4.3---- 3.5------------
1983-08-07 18.3 24.7 14.3--- 6.0 3.3---- 0.3------------
1983-08-06 13.4 19.9 5.9--- 5.3 4.0---- 5.9------------
1983-08-05 13.5 17.4 10.8--- 6.0 2.3---- 0.0------------
1983-08-04 14.6 21.1 12.0--- 8.0 4.0---- 16.0------------
1983-08-03 20.3 28.1 14.0--- 3.7 3.0---- 0.0------------
1983-08-02 18.9 26.9 10.3--- 1.0 0.7---- 0.0------------
1983-08-01 17.2 24.7 8.2--- 0.3 1.0---- 0.0------------
1983-07-31 15.9 21.4 10.5--- 4.7 3.3---- 0.0------------
1983-07-30 15.3 20.9 11.7--- 5.0 5.0---- 1.0------------
1983-07-29 18.3 23.5 14.3--- 2.3 3.3---- 0.0------------
1983-07-28 20.1 25.5 15.0--- 4.7 4.0---- 0.0------------
1983-07-27 21.5 27.1 15.5--- 2.3 2.3---- 0.1------------
1983-07-26 17.5 24.1 13.9--- 7.7 4.7---- 0.8------------
1983-07-25 13.3 19.1 10.8--- 4.0 3.7---- 5.8------------
1983-07-24 14.5 18.0 8.8--- 4.7 3.3---- 3.8------------
1983-07-23 12.6 17.3 9.4--- 7.0 6.0---- 5.5------------
1983-07-22 13.2 16.9 9.3--- 5.0 5.3---- 4.9------------
1983-07-21 11.5 16.7 9.3--- 5.0 7.7---- 1.0------------
1983-07-20 15.7 22.4 10.8--- 6.7 6.0---- 1.0------------
1983-07-19 20.2 29.0 10.8--- 3.0 2.3---- 13.5------------
1983-07-18 18.3 25.4 10.7--- 0.0 1.3---- 0.0------------
1983-07-17 21.2 26.2 14.8--- 0.0 1.0---- 0.0------------
1983-07-16 18.6 26.5 9.8--- 0.0 0.7---- 0.0------------
1983-07-15 18.7 23.5 15.8--- 0.3 2.3---- 0.0------------
1983-07-14 16.8 21.6 15.6--- 6.0 5.7---- 24.3------------
1983-07-13 17.0 21.1 14.5--- 6.0 1.0---- 4.7------------
1983-07-12 16.3 20.1 14.5--- 8.0 3.3---- 10.6------------
1983-07-11 18.5 22.1 15.0--- 8.0 5.3---- 14.4------------
1983-07-10 20.3 26.2 12.3--- 1.3 0.0---- 19.0------------
1983-07-09 19.1 26.4 12.3--- 2.0 0.7---- 0.0------------
1983-07-08 17.6 25.1 6.9--- 1.3 2.0---- 0.0------------
1983-07-07 18.2 24.6 9.7--- 0.0 2.3---- 0.0------------
1983-07-06 19.0 25.1 8.2--- 0.0 0.0---- 0.0------------
1983-07-05 18.9 25.5 10.3--- 2.7 4.0---- 0.0------------
1983-07-04 18.9 24.9 9.0--- 0.0 0.0---- 0.0------------
1983-07-03 18.1 22.4 14.3--- 4.0 3.3---- 0.0------------
1983-07-02 19.6 24.1 15.4--- 5.7 2.7---- 2.8------------
1983-07-01 18.7 25.9 9.3--- 2.3 2.7---- 0.0------------
1983-06-30 16.0 23.3 5.9--- 5.7 1.0---- 0.0------------
1983-06-29 15.7 19.4 12.3--- 5.3 1.0---- 0.0------------
1983-06-28 17.5 22.9 14.9--- 6.3 3.0---- 5.9------------
1983-06-27 20.9 26.8 14.0--- 1.7 3.3---- 0.0------------
1983-06-26 19.3 23.9 15.9--- 3.0 3.7---- 0.0------------
1983-06-25 21.5 26.7 10.3--- 0.3 4.7---- 0.0------------
1983-06-24 17.5 26.5 4.4--- 0.0 2.7---- 0.0------------
1983-06-23 13.0 18.9 2.9--- 0.0 2.3---- 0.0------------
1983-06-22 12.1 18.1 7.1--- 2.3 4.7---- 0.0------------
1983-06-21 18.4 23.6 12.8--- 2.7 3.7---- 0.0------------
1983-06-20 17.8 22.7 14.3--- 4.7 1.0---- 0.0------------
1983-06-19 18.3 23.1 13.8--- 6.0 3.3---- 0.6------------
1983-06-18 13.3 14.3 11.8--- 8.0 7.3---- 17.8------------
1983-06-17 11.5 14.2 7.7--- 8.0 5.3---- 3.2------------
1983-06-16 13.1 16.9 11.7--- 8.0 6.0---- 0.0------------
400.5 ms

 

Źródłem pochodzenia danych jest Instytut Meteorologii i Gospodarki Wodnej – Państwowy Instytut Badawczy. Dane Instytutu Meteorologii i Gospodarki Wodnej – Państwowego Instytutu Badawczego zostały przetworzone.

Dane źródłowe można odnaleźć na stronie https://dane.imgw.pl